createdAt,value
2023-02-14T00:00:51.386Z,101.12
2023-02-14T00:03:18.152Z,99.77
2023-02-14T00:05:44.857Z,99.13
2023-02-14T00:08:12.618Z,99.38
2023-02-14T00:10:39.404Z,99.81
2023-02-14T00:13:06.144Z,100.24
2023-02-14T00:15:32.955Z,100.12
2023-02-14T00:18:00.036Z,98.62
2023-02-14T00:20:28.151Z,99.34
2023-02-14T00:22:55.279Z,100.53
2023-02-14T00:25:22.063Z,97.52
2023-02-14T00:27:48.817Z,96.71
2023-02-14T00:30:15.733Z,95.31
2023-02-14T00:32:42.994Z,95.57
2023-02-14T00:35:10.815Z,96.07
2023-02-14T00:37:37.761Z,95.69
2023-02-14T00:40:06.508Z,97.42
2023-02-14T00:42:33.546Z,97.34
2023-02-14T00:45:00.426Z,96.85
2023-02-14T00:47:27.139Z,97.52
2023-02-14T00:49:53.915Z,96.27
2023-02-14T00:52:20.684Z,95.78
2023-02-14T00:54:47.491Z,97.26
2023-02-14T00:57:14.332Z,97.53
2023-02-14T00:59:41.094Z,98.55
2023-02-14T01:02:07.997Z,98.68
2023-02-14T01:04:34.921Z,99.25
2023-02-14T01:07:01.610Z,98.91
2023-02-14T01:09:28.361Z,98.98
2023-02-14T01:11:55.118Z,99.03
2023-02-14T01:14:21.984Z,97.84
2023-02-14T01:16:48.777Z,98.82
2023-02-14T01:19:15.522Z,98.48
2023-02-14T01:21:42.344Z,98.87
2023-02-14T01:24:15.118Z,99.60
2023-02-14T01:26:41.768Z,98.95
2023-02-14T01:29:08.536Z,99.33
2023-02-14T01:31:35.648Z,98.61
2023-02-14T01:34:03.124Z,98.05
2023-02-14T01:36:36.780Z,98.34
2023-02-14T01:39:06.525Z,96.13
2023-02-14T01:41:36.035Z,96.25
2023-02-14T01:44:07.254Z,96.60
2023-02-14T01:46:36.558Z,97.31
2023-02-14T01:49:15.415Z,98.16
2023-02-14T01:51:47.679Z,97.45
2023-02-14T01:54:14.984Z,96.99
2023-02-14T01:56:48.519Z,96.41
2023-02-14T01:59:19.531Z,96.27
2023-02-14T02:01:49.762Z,96.36
2023-02-14T02:04:25.190Z,95.64
2023-02-14T02:06:57.169Z,97.89
2023-02-14T02:09:39.037Z,98.70
2023-02-14T02:12:05.880Z,98.54
2023-02-14T02:14:33.303Z,98.68
2023-02-14T02:17:18.845Z,99.80
2023-02-14T02:20:01.590Z,98.52
2023-02-14T02:22:41.416Z,97.58
2023-02-14T02:25:32.173Z,97.71
2023-02-14T02:28:17.680Z,97.45
2023-02-14T02:31:05.618Z,97.45
2023-02-14T02:33:45.319Z,96.97
2023-02-14T02:36:37.046Z,97.74
2023-02-14T02:39:29.291Z,97.52
2023-02-14T02:42:14.591Z,96.97
2023-02-14T02:45:06.395Z,96.91
2023-02-14T02:47:58.244Z,97.16
2023-02-14T02:50:52.081Z,97.04
2023-02-14T02:53:51.524Z,97.41
2023-02-14T02:56:46.700Z,97.50
2023-02-14T02:59:19.781Z,98.40
2023-02-14T03:01:57.745Z,97.55
2023-02-14T03:04:52.561Z,97.84
2023-02-14T03:07:40.615Z,97.01
2023-02-14T03:10:23.852Z,96.94
2023-02-14T03:13:15.539Z,97.84
2023-02-14T03:15:48.238Z,97.67
2023-02-14T03:19:02.702Z,97.64
2023-02-14T03:21:40.598Z,97.32
2023-02-14T03:24:28.766Z,96.60
2023-02-14T03:27:15.406Z,95.88
2023-02-14T03:30:13.516Z,96.35
2023-02-14T03:32:46.293Z,96.61
2023-02-14T03:35:31.809Z,96.58
2023-02-14T03:38:13.508Z,96.85
2023-02-14T03:40:46.763Z,96.90
2023-02-14T03:43:20.139Z,96.78
2023-02-14T03:45:51.964Z,96.69
2023-02-14T03:48:24.108Z,97.79
2023-02-14T03:50:52.365Z,98.18
2023-02-14T03:53:24.981Z,98.30
2023-02-14T03:56:01.617Z,98.37
2023-02-14T03:58:38.797Z,98.84
2023-02-14T04:01:14.874Z,98.08
2023-02-14T04:03:43.702Z,97.50
2023-02-14T04:06:10.713Z,97.65
2023-02-14T04:08:37.459Z,96.81
2023-02-14T04:11:05.615Z,96.76
2023-02-14T04:13:32.705Z,96.84
2023-02-14T04:15:59.580Z,96.90
2023-02-14T04:18:44.900Z,96.67
2023-02-14T04:21:11.726Z,96.91
2023-02-14T04:23:38.344Z,97.37
2023-02-14T04:26:05.334Z,97.24
2023-02-14T04:28:32.505Z,97.92
2023-02-14T04:31:05.215Z,98.01
2023-02-14T04:33:33.192Z,97.70
2023-02-14T04:36:00.810Z,97.26
2023-02-14T04:38:27.571Z,98.21
2023-02-14T04:40:54.368Z,98.64
2023-02-14T04:43:21.153Z,98.65
2023-02-14T04:45:47.929Z,98.36
2023-02-14T04:48:14.779Z,98.73
2023-02-14T04:50:41.496Z,97.49
2023-02-14T04:53:08.186Z,96.26
2023-02-14T04:55:34.919Z,96.81
2023-02-14T04:58:01.662Z,96.61
2023-02-14T05:00:28.405Z,96.75
2023-02-14T05:02:55.146Z,97.30
2023-02-14T05:05:21.966Z,97.90
2023-02-14T05:07:48.799Z,98.20
2023-02-14T05:10:16.298Z,98.35
2023-02-14T05:12:43.215Z,98.35
2023-02-14T05:15:10.512Z,98.92
2023-02-14T05:17:37.413Z,99.23
2023-02-14T05:20:05.965Z,98.47
2023-02-14T05:22:32.864Z,97.97
2023-02-14T05:24:59.834Z,97.39
2023-02-14T05:27:28.573Z,97.68
2023-02-14T05:30:14.187Z,97.97
2023-02-14T05:33:00.323Z,98.97
2023-02-14T05:35:27.677Z,98.79
2023-02-14T05:37:54.454Z,99.40
2023-02-14T05:40:21.343Z,98.49
2023-02-14T05:42:47.988Z,99.03
2023-02-14T05:45:15.138Z,98.83
2023-02-14T05:47:42.023Z,98.64
2023-02-14T05:50:09.298Z,98.34
2023-02-14T05:52:36.582Z,99.23
2023-02-14T05:55:04.161Z,98.87
2023-02-14T05:57:31.172Z,97.50
2023-02-14T05:59:57.821Z,97.01
2023-02-14T06:02:24.789Z,97.23
2023-02-14T06:04:51.697Z,98.71
2023-02-14T06:07:18.755Z,99.38
2023-02-14T06:09:45.505Z,100.25
2023-02-14T06:12:12.120Z,99.86
2023-02-14T06:14:39.007Z,98.53
2023-02-14T06:17:05.738Z,99.64
2023-02-14T06:19:32.534Z,99.72
2023-02-14T06:21:59.172Z,100.16
2023-02-14T06:24:25.911Z,100.25
2023-02-14T06:26:52.553Z,99.87
2023-02-14T06:29:19.345Z,100.25
2023-02-14T06:31:46.332Z,99.29
2023-02-14T06:34:14.786Z,100.35
2023-02-14T06:36:42.027Z,99.80
2023-02-14T06:39:08.771Z,99.00
2023-02-14T06:41:35.620Z,99.81
2023-02-14T06:44:02.607Z,99.42
2023-02-14T06:46:29.411Z,98.98
2023-02-14T06:48:56.474Z,98.64
2023-02-14T06:51:23.262Z,98.69
2023-02-14T06:53:50.251Z,99.08
2023-02-14T06:56:16.933Z,98.93
2023-02-14T06:58:43.622Z,99.32
2023-02-14T07:01:10.374Z,98.86
2023-02-14T07:03:37.209Z,97.87
2023-02-14T07:06:04.029Z,97.15
2023-02-14T07:08:30.806Z,97.23
2023-02-14T07:10:58.621Z,97.92
2023-02-14T07:13:25.710Z,97.84
2023-02-14T07:15:52.407Z,98.24
2023-02-14T07:18:19.281Z,98.90
2023-02-14T07:20:46.090Z,98.17
2023-02-14T07:23:12.874Z,98.87
2023-02-14T07:25:40.654Z,99.13
2023-02-14T07:28:07.405Z,99.14
2023-02-14T07:30:34.455Z,98.90
2023-02-14T07:33:01.382Z,98.23
2023-02-14T07:35:28.112Z,98.60
2023-02-14T07:37:55.093Z,98.65
2023-02-14T07:40:22.289Z,98.46
2023-02-14T07:42:57.034Z,98.81
2023-02-14T07:45:24.865Z,98.05
2023-02-14T07:47:53.790Z,97.81
2023-02-14T07:50:22.703Z,97.90
2023-02-14T07:52:49.588Z,97.56
2023-02-14T07:55:16.452Z,97.28
2023-02-14T07:57:43.337Z,97.74
2023-02-14T08:00:10.535Z,97.58
2023-02-14T08:02:37.275Z,97.16
2023-02-14T08:05:04.080Z,97.71
2023-02-14T08:07:31.152Z,97.19
2023-02-14T08:09:57.799Z,97.19
2023-02-14T08:12:43.351Z,97.99
2023-02-14T08:15:28.662Z,97.35
2023-02-14T08:17:56.749Z,97.03
2023-02-14T08:20:23.463Z,96.58
2023-02-14T08:22:50.203Z,96.25
2023-02-14T08:25:17.048Z,96.04
2023-02-14T08:27:43.730Z,94.98
2023-02-14T08:30:10.898Z,95.91
2023-02-14T08:32:38.003Z,95.81
2023-02-14T08:35:05.058Z,95.18
2023-02-14T08:37:31.854Z,95.98
2023-02-14T08:39:58.607Z,95.83
2023-02-14T08:42:25.530Z,95.54
2023-02-14T08:44:52.253Z,96.41
2023-02-14T08:47:20.110Z,95.66
2023-02-14T08:49:46.876Z,95.55
2023-02-14T08:52:13.591Z,96.24
2023-02-14T08:54:40.335Z,96.08
2023-02-14T08:57:07.229Z,95.67
2023-02-14T08:59:34.220Z,95.27
2023-02-14T09:02:01.022Z,95.36
2023-02-14T09:04:27.905Z,96.35
2023-02-14T09:06:54.646Z,95.49
2023-02-14T09:09:21.367Z,96.09
2023-02-14T09:11:48.157Z,95.89
2023-02-14T09:14:16.196Z,96.13
2023-02-14T09:16:43.162Z,95.23
2023-02-14T09:19:12.585Z,95.83
2023-02-14T09:21:40.749Z,95.68
2023-02-14T09:24:07.513Z,94.96
2023-02-14T09:26:36.936Z,94.81
2023-02-14T09:29:03.688Z,95.52
2023-02-14T09:31:30.786Z,95.20
2023-02-14T09:33:57.638Z,94.82
2023-02-14T09:36:42.917Z,95.17
2023-02-14T09:39:09.673Z,96.86
2023-02-14T09:42:03.319Z,95.72
2023-02-14T09:44:40.147Z,94.75
2023-02-14T09:47:30.105Z,94.57
2023-02-14T09:49:58.222Z,94.77
2023-02-14T09:52:28.802Z,94.36
2023-02-14T09:54:59.196Z,94.69
2023-02-14T09:57:43.817Z,94.96
2023-02-14T10:00:33.876Z,95.08
2023-02-14T10:03:26.365Z,95.00
2023-02-14T10:06:30.937Z,95.47
2023-02-14T10:09:00.589Z,95.48
2023-02-14T10:11:28.244Z,94.08
2023-02-14T10:14:22.693Z,93.81
2023-02-14T10:16:55.265Z,94.16
2023-02-14T10:19:42.825Z,94.29
2023-02-14T10:22:23.020Z,94.76
2023-02-14T10:24:56.231Z,94.64
2023-02-14T10:27:40.599Z,94.49
2023-02-14T10:30:12.918Z,93.92
2023-02-14T10:33:12.042Z,94.14
2023-02-14T10:35:42.928Z,93.22
2023-02-14T10:38:17.590Z,93.79
2023-02-14T10:40:59.984Z,94.22
2023-02-14T10:43:50.686Z,93.24
2023-02-14T10:47:02.497Z,93.43
2023-02-14T10:49:35.252Z,93.35
2023-02-14T10:52:08.163Z,93.27
2023-02-14T10:54:41.196Z,93.43
2023-02-14T10:57:34.339Z,93.91
2023-02-14T11:00:05.270Z,93.91
2023-02-14T11:02:37.483Z,94.14
2023-02-14T11:05:05.959Z,93.12
2023-02-14T11:07:32.830Z,93.54
2023-02-14T11:10:00.402Z,93.12
2023-02-14T11:12:41.308Z,94.73
2023-02-14T11:15:10.560Z,94.37
2023-02-14T11:17:37.976Z,93.95
2023-02-14T11:20:26.545Z,94.12
2023-02-14T11:22:53.401Z,93.90
2023-02-14T11:25:26.524Z,93.01
2023-02-14T11:28:01.411Z,92.83
2023-02-14T11:30:34.246Z,92.77
2023-02-14T11:33:01.621Z,92.29
2023-02-14T11:35:35.579Z,92.55
2023-02-14T11:38:05.458Z,92.41
2023-02-14T11:40:35.202Z,92.23
2023-02-14T11:43:14.181Z,92.40
2023-02-14T11:45:43.916Z,92.69
2023-02-14T11:48:19.960Z,92.31
2023-02-14T11:51:07.093Z,91.95
2023-02-14T11:53:55.940Z,91.76
2023-02-14T11:56:23.938Z,92.46
2023-02-14T11:58:57.984Z,91.36
2023-02-14T12:01:27.943Z,91.05
2023-02-14T12:03:57.030Z,92.15
2023-02-14T12:06:33.258Z,90.93
2023-02-14T12:09:22.044Z,91.65
2023-02-14T12:12:01.009Z,90.64
2023-02-14T12:14:35.823Z,91.89
2023-02-14T12:17:11.711Z,91.46
2023-02-14T12:19:53.575Z,90.71
2023-02-14T12:22:27.408Z,90.79
2023-02-14T12:25:22.795Z,90.81
2023-02-14T12:27:57.008Z,90.94
2023-02-14T12:30:25.809Z,91.30
2023-02-14T12:32:56.674Z,90.55
2023-02-14T12:35:54.467Z,91.67
2023-02-14T12:38:33.274Z,92.21
2023-02-14T12:41:18.952Z,90.82
2023-02-14T12:44:12.010Z,90.76
2023-02-14T12:47:11.177Z,90.24
2023-02-14T12:49:47.626Z,90.64
2023-02-14T12:52:38.843Z,91.34
2023-02-14T12:55:20.540Z,90.82
2023-02-14T12:58:03.009Z,90.81
2023-02-14T13:00:40.289Z,90.40
2023-02-14T13:03:37.957Z,89.84
2023-02-14T13:06:32.266Z,89.65
2023-02-14T13:09:05.123Z,89.32
2023-02-14T13:11:41.035Z,89.21
2023-02-14T13:14:33.783Z,90.24
2023-02-14T13:17:11.674Z,90.35
2023-02-14T13:19:55.482Z,91.90
2023-02-14T13:22:25.293Z,90.44
2023-02-14T13:24:57.130Z,91.37
2023-02-14T13:27:26.129Z,90.39
2023-02-14T13:30:21.658Z,89.79
2023-02-14T13:32:50.682Z,90.08
2023-02-14T13:35:19.932Z,90.33
2023-02-14T13:37:52.200Z,90.51
2023-02-14T13:40:23.904Z,90.88
2023-02-14T13:42:53.764Z,90.18
2023-02-14T13:45:30.294Z,90.50
2023-02-14T13:48:20.570Z,90.52
2023-02-14T13:51:04.736Z,90.89
2023-02-14T13:53:37.545Z,90.81
2023-02-14T13:56:05.748Z,91.16
2023-02-14T13:58:33.254Z,90.93
2023-02-14T14:01:34.954Z,91.93
2023-02-14T14:04:05.763Z,90.44
2023-02-14T14:07:04.924Z,86.93
2023-02-14T14:09:45.372Z,89.23
2023-02-14T14:12:27.625Z,89.05
2023-02-14T14:15:06.536Z,89.02
2023-02-14T14:17:37.591Z,89.31
2023-02-14T14:20:27.571Z,90.07
2023-02-14T14:22:56.683Z,90.42
2023-02-14T14:25:34.650Z,89.16
2023-02-14T14:28:01.711Z,89.54
2023-02-14T14:30:33.426Z,90.53
2023-02-14T14:33:19.015Z,91.25
2023-02-14T14:35:54.192Z,92.02
2023-02-14T14:38:21.017Z,90.92
2023-02-14T14:40:48.929Z,92.12
2023-02-14T14:43:39.547Z,92.81
2023-02-14T14:46:10.942Z,92.20
2023-02-14T14:48:47.000Z,92.53
2023-02-14T14:51:30.100Z,92.25
2023-02-14T14:54:13.869Z,91.48
2023-02-14T14:57:02.780Z,91.79
2023-02-14T14:59:35.130Z,90.97
2023-02-14T15:02:24.282Z,90.33
2023-02-14T15:04:51.060Z,90.68
2023-02-14T15:07:27.657Z,91.43
2023-02-14T15:09:54.422Z,91.19
2023-02-14T15:12:42.264Z,91.24
2023-02-14T15:15:15.249Z,91.53
2023-02-14T15:17:43.064Z,91.53
2023-02-14T15:20:15.158Z,91.40
2023-02-14T15:22:45.618Z,91.53
2023-02-14T15:25:26.666Z,91.50
2023-02-14T15:27:53.817Z,92.99
2023-02-14T15:30:20.756Z,94.29
2023-02-14T15:32:50.483Z,94.16
2023-02-14T15:35:22.822Z,94.10
2023-02-14T15:37:50.705Z,94.52
2023-02-14T15:40:22.657Z,94.75
2023-02-14T15:42:53.158Z,95.54
2023-02-14T15:45:26.515Z,95.47
2023-02-14T15:48:01.008Z,95.37
2023-02-14T15:50:47.866Z,95.28
2023-02-14T15:53:29.556Z,96.43
2023-02-14T15:56:04.755Z,96.68
2023-02-14T15:58:32.924Z,96.82
2023-02-14T16:01:00.192Z,97.53
2023-02-14T16:03:31.093Z,97.22
2023-02-14T16:05:58.794Z,97.75
2023-02-14T16:08:37.682Z,98.00
2023-02-14T16:11:26.890Z,98.88
2023-02-14T16:13:54.221Z,99.01
2023-02-14T16:16:21.695Z,99.95
2023-02-14T16:18:55.974Z,100.01
2023-02-14T16:21:28.508Z,100.49
2023-02-14T16:24:21.705Z,101.44
2023-02-14T16:26:48.749Z,101.64
2023-02-14T16:29:17.410Z,101.42
2023-02-14T16:32:14.660Z,101.73
2023-02-14T16:34:42.930Z,101.44
2023-02-14T16:37:19.857Z,102.03
2023-02-14T16:39:47.328Z,102.37
2023-02-14T16:42:18.662Z,102.75
2023-02-14T16:44:46.375Z,103.06
2023-02-14T16:47:14.743Z,103.57
2023-02-14T16:49:42.189Z,103.65
2023-02-14T16:52:18.333Z,103.59
2023-02-14T16:54:45.429Z,104.90
2023-02-14T16:57:27.754Z,105.05
2023-02-14T16:59:56.400Z,104.69
2023-02-14T17:02:28.508Z,104.60
2023-02-14T17:04:55.639Z,105.03
2023-02-14T17:07:23.064Z,105.40
2023-02-14T17:09:56.001Z,106.05
2023-02-14T17:12:29.179Z,106.46
2023-02-14T17:14:59.287Z,106.41
2023-02-14T17:17:26.649Z,106.35
2023-02-14T17:19:53.531Z,106.92
2023-02-14T17:22:21.078Z,106.59
2023-02-14T17:24:47.959Z,106.89
2023-02-14T17:27:15.219Z,107.04
2023-02-14T17:29:43.736Z,107.63
2023-02-14T17:32:13.010Z,108.44
2023-02-14T17:34:40.976Z,107.38
2023-02-14T17:37:08.073Z,107.29
2023-02-14T17:39:35.019Z,107.62
2023-02-14T17:42:01.649Z,107.95
2023-02-14T17:44:32.408Z,108.17
2023-02-14T17:46:59.343Z,108.72
2023-02-14T17:49:26.796Z,109.15
2023-02-14T17:51:53.677Z,109.55
2023-02-14T17:54:20.458Z,110.73
2023-02-14T17:56:47.123Z,110.60
2023-02-14T17:59:14.227Z,110.33
2023-02-14T18:01:40.929Z,110.12
2023-02-14T18:04:07.759Z,111.22
2023-02-14T18:06:34.745Z,110.58
2023-02-14T18:09:05.879Z,110.49
2023-02-14T18:11:32.598Z,110.69
2023-02-14T18:13:59.860Z,111.03
2023-02-14T18:16:26.565Z,110.48
2023-02-14T18:18:54.937Z,110.49
2023-02-14T18:21:24.329Z,111.12
2023-02-14T18:23:52.031Z,110.96
2023-02-14T18:26:19.531Z,111.16
2023-02-14T18:28:46.859Z,110.69
2023-02-14T18:31:17.166Z,111.26
2023-02-14T18:33:46.709Z,112.44
2023-02-14T18:36:17.157Z,112.87
2023-02-14T18:38:46.021Z,112.82
2023-02-14T18:41:15.534Z,112.12
2023-02-14T18:43:43.029Z,111.64
2023-02-14T18:46:12.563Z,112.38
2023-02-14T18:48:39.797Z,112.23
2023-02-14T18:51:07.492Z,112.16
2023-02-14T18:53:35.302Z,112.16
2023-02-14T18:56:10.706Z,112.39
2023-02-14T18:58:37.785Z,113.17
2023-02-14T19:01:14.274Z,112.84
2023-02-14T19:03:41.505Z,112.65
2023-02-14T19:06:09.159Z,113.63
2023-02-14T19:08:38.956Z,113.84
2023-02-14T19:11:21.974Z,113.72
2023-02-14T19:13:50.997Z,113.44
2023-02-14T19:16:20.841Z,115.03
2023-02-14T19:18:49.662Z,115.30
2023-02-14T19:21:20.196Z,114.69
2023-02-14T19:23:47.217Z,114.28
2023-02-14T19:26:16.858Z,113.87
2023-02-14T19:28:44.813Z,114.32
2023-02-14T19:31:12.196Z,114.21
2023-02-14T19:33:40.890Z,113.84
2023-02-14T19:36:12.701Z,113.54
2023-02-14T19:38:41.095Z,113.61
2023-02-14T19:41:16.740Z,113.56
2023-02-14T19:43:45.850Z,113.39
2023-02-14T19:46:14.470Z,114.52
2023-02-14T19:48:42.371Z,114.38
2023-02-14T19:51:15.659Z,114.22
2023-02-14T19:53:42.525Z,113.70
2023-02-14T19:56:09.576Z,114.99
2023-02-14T19:58:36.633Z,115.35
2023-02-14T20:01:05.869Z,115.35
2023-02-14T20:03:35.217Z,115.33
2023-02-14T20:06:01.972Z,115.16
2023-02-14T20:08:28.745Z,115.37
2023-02-14T20:10:55.588Z,115.67
2023-02-14T20:13:22.394Z,116.02
2023-02-14T20:15:49.292Z,115.41
2023-02-14T20:18:16.034Z,115.60
2023-02-14T20:21:04.718Z,115.66
2023-02-14T20:23:32.257Z,116.25
2023-02-14T20:25:58.956Z,116.17
2023-02-14T20:28:25.723Z,116.18
2023-02-14T20:30:52.437Z,115.52
2023-02-14T20:33:19.225Z,115.73
2023-02-14T20:35:45.912Z,115.94
2023-02-14T20:38:12.661Z,117.17
2023-02-14T20:40:42.287Z,117.33
2023-02-14T20:43:09.127Z,117.02
2023-02-14T20:45:35.863Z,117.29
2023-02-14T20:48:04.237Z,117.59
2023-02-14T20:50:31.481Z,117.54
2023-02-14T20:52:58.331Z,117.16
2023-02-14T20:55:27.116Z,117.25
2023-02-14T20:57:54.544Z,116.91
2023-02-14T21:00:25.505Z,117.58
2023-02-14T21:02:52.352Z,117.85
2023-02-14T21:05:20.831Z,117.99
2023-02-14T21:07:47.712Z,117.92
2023-02-14T21:10:15.371Z,117.66
2023-02-14T21:12:42.219Z,118.00
2023-02-14T21:15:10.291Z,118.26
2023-02-14T21:17:37.895Z,118.37
2023-02-14T21:20:05.851Z,118.13
2023-02-14T21:22:32.930Z,117.84
2023-02-14T21:24:59.604Z,117.77
2023-02-14T21:27:26.810Z,118.02
2023-02-14T21:29:53.597Z,117.99
2023-02-14T21:32:20.399Z,117.86
2023-02-14T21:34:47.596Z,118.13
2023-02-14T21:37:14.669Z,118.13
2023-02-14T21:39:41.684Z,118.55
2023-02-14T21:42:11.402Z,118.85
2023-02-14T21:44:57.243Z,118.99
2023-02-14T21:47:24.165Z,118.86
2023-02-14T21:50:09.472Z,118.99
2023-02-14T21:52:36.679Z,118.99
2023-02-14T21:55:03.615Z,118.99
2023-02-14T21:57:31.299Z,118.99
2023-02-14T21:59:57.942Z,118.99
2023-02-14T22:02:24.661Z,118.99
2023-02-14T22:04:51.341Z,118.99
2023-02-14T22:07:18.032Z,118.99
2023-02-14T22:09:44.716Z,118.99
2023-02-14T22:12:11.941Z,118.99
2023-02-14T22:14:38.612Z,118.99
2023-02-14T22:17:05.267Z,118.99
2023-02-14T22:19:31.956Z,118.99
2023-02-14T22:21:58.861Z,118.99
2023-02-14T22:24:25.541Z,118.99
2023-02-14T22:26:52.260Z,118.99
2023-02-14T22:29:18.903Z,118.99
2023-02-14T22:31:46.018Z,118.99
2023-02-14T22:34:15.083Z,118.99
2023-02-14T22:36:41.903Z,118.99
2023-02-14T22:39:09.411Z,118.99
2023-02-14T22:41:37.750Z,118.99
2023-02-14T22:44:05.410Z,118.99
2023-02-14T22:46:32.381Z,118.99
2023-02-14T22:48:59.068Z,118.99
2023-02-14T22:51:31.050Z,118.99
2023-02-14T22:54:15.574Z,118.99
2023-02-14T22:56:45.489Z,118.99
2023-02-14T22:59:23.228Z,118.99
2023-02-14T23:01:52.047Z,118.99
2023-02-14T23:04:21.795Z,118.99
2023-02-14T23:06:48.926Z,118.99
2023-02-14T23:09:15.892Z,118.99
2023-02-14T23:11:43.863Z,118.99
2023-02-14T23:14:34.476Z,118.99
2023-02-14T23:17:20.451Z,118.99
2023-02-14T23:20:06.256Z,118.99
2023-02-14T23:22:36.474Z,118.99
2023-02-14T23:25:07.078Z,118.99
2023-02-14T23:27:36.951Z,118.99
2023-02-14T23:30:06.288Z,118.99
2023-02-14T23:32:33.080Z,118.99
2023-02-14T23:35:00.247Z,118.99
2023-02-14T23:37:29.573Z,118.99
2023-02-14T23:39:56.237Z,118.99
2023-02-14T23:42:22.945Z,118.99
2023-02-14T23:44:49.644Z,118.99
2023-02-14T23:47:17.307Z,118.99
2023-02-14T23:49:45.769Z,118.99
2023-02-14T23:52:13.474Z,118.99
2023-02-14T23:54:40.723Z,118.99
2023-02-14T23:57:08.452Z,118.99
2023-02-14T23:59:35.300Z,118.99
